Time;durP1;ratioP1;P1;durP2;ratioP2;P2;SDS_P1;SDS_P2;PMS_P1;PMS_P2;Temp;Humidity;BMP_temperature;BMP_pressure;BME280_temperature;BME280_humidity;BME280_pressure;Samples;Min_cycle;Max_cycle;Signal;HPM_P1;HPM_P2
2024/01/25 00:02:17;;;;;;;662.45;611.45;;;7.20;99.90;;;;;;5003910;28;20470;-77
2024/01/25 00:04:43;;;;;;;737.85;677.13;;;7.20;99.90;;;;;;4985271;28;20111;-77
2024/01/25 00:07:09;;;;;;;636.45;587.10;;;7.10;99.90;;;;;;4984943;28;20078;-77
2024/01/25 00:09:35;;;;;;;614.92;568.25;;;7.10;99.90;;;;;;4983773;28;20072;-77
2024/01/25 00:12:01;;;;;;;711.40;654.90;;;7.10;99.90;;;;;;4984518;28;20385;-77
2024/01/25 00:14:27;;;;;;;691.97;638.38;;;7.00;99.90;;;;;;4983167;28;20107;-77
2024/01/25 00:16:52;;;;;;;782.13;718.72;;;6.90;99.90;;;;;;4995314;28;20054;-77
2024/01/25 00:19:18;;;;;;;747.10;686.33;;;6.90;99.90;;;;;;5002894;28;20122;-77
2024/01/25 00:21:44;;;;;;;837.97;767.03;;;6.90;99.90;;;;;;4986174;28;20538;-77
2024/01/25 00:24:12;;;;;;;701.35;647.03;;;6.90;99.90;;;;;;4985110;28;20038;-77
2024/01/25 00:26:38;;;;;;;800.95;727.33;;;6.90;99.90;;;;;;5000377;28;20398;-77
2024/01/25 00:29:04;;;;;;;798.65;733.60;;;6.80;99.90;;;;;;4986627;28;20046;-77
2024/01/25 00:31:30;;;;;;;1023.42;903.47;;;6.80;99.90;;;;;;5002734;28;20133;-77
2024/01/25 00:33:57;;;;;;;793.03;727.47;;;6.80;99.90;;;;;;4984336;28;20145;-77
2024/01/25 00:36:25;;;;;;;784.50;719.75;;;6.80;99.90;;;;;;4985695;28;20129;-77
2024/01/25 00:38:51;;;;;;;800.63;735.00;;;6.70;99.90;;;;;;4982584;28;20064;-77
2024/01/25 00:41:19;;;;;;;730.10;670.83;;;6.70;99.90;;;;;;4983142;28;20532;-77
2024/01/25 00:43:46;;;;;;;805.30;740.22;;;6.70;99.90;;;;;;4983510;28;20057;-77
2024/01/25 00:46:12;;;;;;;856.78;783.20;;;6.60;99.90;;;;;;4987367;28;20053;-77
2024/01/25 00:48:40;;;;;;;838.53;765.20;;;6.50;99.90;;;;;;4989518;28;20446;-77
2024/01/25 00:51:08;;;;;;;822.17;754.08;;;6.50;99.90;;;;;;4992098;28;20078;-77
2024/01/25 00:53:35;;;;;;;825.75;755.17;;;6.50;99.90;;;;;;4991841;28;20086;-77
2024/01/25 00:56:00;;;;;;;820.35;750.80;;;6.50;99.90;;;;;;4988849;28;20065;-76
2024/01/25 00:58:26;;;;;;;817.42;749.20;;;6.50;99.90;;;;;;4991851;28;20038;-77
2024/01/25 01:00:52;;;;;;;833.30;760.75;;;6.40;99.90;;;;;;5016906;28;20040;-77
2024/01/25 01:03:19;;;;;;;841.85;769.95;;;6.40;99.90;;;;;;4984287;28;20042;-77
2024/01/25 01:05:45;;;;;;;789.28;725.55;;;6.40;99.90;;;;;;5009774;28;20057;-77
2024/01/25 01:08:12;;;;;;;878.15;800.22;;;6.30;99.90;;;;;;4978471;28;20046;-77
2024/01/25 01:10:37;;;;;;;818.25;750.50;;;6.30;99.90;;;;;;4987015;28;20031;-77
2024/01/25 01:13:03;;;;;;;837.65;768.55;;;6.30;99.90;;;;;;4989894;28;20500;-77
2024/01/25 01:15:29;;;;;;;840.88;769.90;;;6.20;99.90;;;;;;4989782;28;20054;-77
2024/01/25 01:17:54;;;;;;;814.20;747.15;;;6.20;99.90;;;;;;4977649;28;20043;-77
2024/01/25 01:20:20;;;;;;;865.60;792.13;;;6.20;99.90;;;;;;4990960;28;20371;-77
2024/01/25 01:22:46;;;;;;;914.95;830.33;;;6.20;99.90;;;;;;4970546;28;20753;-77
2024/01/25 01:25:12;;;;;;;1014.00;907.50;;;6.20;99.90;;;;;;4981917;28;20137;-77
2024/01/25 01:27:37;;;;;;;873.20;798.03;;;6.20;99.90;;;;;;4990373;28;20408;-77
2024/01/25 01:30:04;;;;;;;926.10;836.00;;;6.20;99.90;;;;;;4971413;28;20051;-77
2024/01/25 01:32:29;;;;;;;853.92;781.92;;;6.20;99.90;;;;;;4989514;28;20572;-77
2024/01/25 01:34:55;;;;;;;821.13;748.70;;;6.20;99.90;;;;;;4990569;28;20140;-77
2024/01/25 01:37:22;;;;;;;823.53;754.45;;;6.20;99.90;;;;;;4990408;28;20137;-77
2024/01/25 01:39:47;;;;;;;785.75;720.45;;;6.20;99.90;;;;;;4991125;28;20129;-77
2024/01/25 01:42:13;;;;;;;812.03;746.28;;;6.20;99.90;;;;;;4990880;28;20064;-77
2024/01/25 01:44:39;;;;;;;880.90;804.72;;;6.20;99.90;;;;;;4989765;28;20046;-77
2024/01/25 01:47:05;;;;;;;784.38;720.08;;;6.20;99.90;;;;;;4992114;28;20038;-77
2024/01/25 01:49:31;;;;;;;875.05;800.17;;;6.20;99.90;;;;;;5023143;28;20382;-77
2024/01/25 01:51:57;;;;;;;873.65;799.13;;;6.20;99.90;;;;;;5023877;27;20046;-77
2024/01/25 01:54:24;;;;;;;793.10;730.15;;;6.20;99.90;;;;;;4990127;28;20058;-77
2024/01/25 01:56:50;;;;;;;805.72;741.42;;;6.10;99.90;;;;;;4991335;28;20054;-77
2024/01/25 01:59:16;;;;;;;921.70;838.20;;;6.20;99.90;;;;;;4985467;28;20420;-77
2024/01/25 02:01:42;;;;;;;760.22;699.53;;;6.20;99.90;;;;;;5031805;28;20085;-77
2024/01/25 02:04:08;;;;;;;810.72;738.78;;;6.10;99.90;;;;;;4988237;28;20069;-77
2024/01/25 02:06:34;;;;;;;768.05;706.35;;;6.10;99.90;;;;;;4983378;28;20058;-77
2024/01/25 02:09:00;;;;;;;876.58;802.45;;;6.10;99.90;;;;;;4980578;28;20366;-77
2024/01/25 02:11:26;;;;;;;756.65;696.40;;;6.10;99.90;;;;;;4987747;28;20513;-77
2024/01/25 02:13:52;;;;;;;880.50;803.63;;;6.10;99.90;;;;;;4986239;28;20050;-77
2024/01/25 02:16:19;;;;;;;822.08;755.65;;;6.10;99.90;;;;;;4992980;28;20512;-77
2024/01/25 02:18:46;;;;;;;862.85;788.15;;;6.00;99.90;;;;;;5004543;28;20497;-77
2024/01/25 02:21:12;;;;;;;897.72;817.35;;;6.20;99.90;;;;;;4994143;28;20087;-77
2024/01/25 02:23:38;;;;;;;849.92;776.90;;;6.00;99.90;;;;;;5004588;28;20058;-77
2024/01/25 02:26:04;;;;;;;779.70;716.00;;;6.10;99.90;;;;;;5004562;28;20098;-77
2024/01/25 02:28:29;;;;;;;802.65;734.85;;;6.00;99.90;;;;;;5036952;28;20069;-77
2024/01/25 02:30:55;;;;;;;993.67;896.83;;;6.00;99.90;;;;;;5004579;28;20056;-77
2024/01/25 02:33:21;;;;;;;864.80;780.63;;;5.90;99.90;;;;;;5004818;28;20784;-77
2024/01/25 02:35:46;;;;;;;924.72;839.88;;;5.90;99.90;;;;;;5005502;28;20149;-77
2024/01/25 02:38:12;;;;;;;868.88;793.75;;;6.00;99.90;;;;;;5005411;28;20042;-77
2024/01/25 02:40:38;;;;;;;777.83;715.50;;;5.90;99.90;;;;;;5004533;28;20087;-77
2024/01/25 02:43:04;;;;;;;957.10;868.40;;;5.90;99.90;;;;;;5003613;28;20486;-77
2024/01/25 02:45:29;;;;;;;969.88;875.35;;;5.90;99.90;;;;;;5005332;28;20797;-77
2024/01/25 02:47:55;;;;;;;848.25;776.90;;;5.90;99.90;;;;;;5035148;28;20840;-77
2024/01/25 02:50:21;;;;;;;839.05;766.05;;;5.90;99.90;;;;;;5003160;28;20046;-77
2024/01/25 02:52:46;;;;;;;1038.32;928.47;;;5.90;99.90;;;;;;5003844;28;20037;-77
2024/01/25 02:55:12;;;;;;;874.85;800.58;;;5.90;99.90;;;;;;5002235;28;20046;-77
2024/01/25 02:57:38;;;;;;;810.88;745.80;;;5.80;99.90;;;;;;5002914;28;20083;-77
2024/01/25 03:00:04;;;;;;;882.08;805.92;;;5.80;99.90;;;;;;4991613;28;20513;-77
2024/01/25 03:02:31;;;;;;;891.05;811.28;;;5.80;99.90;;;;;;5003186;28;20170;-77
2024/01/25 03:04:57;;;;;;;879.70;804.25;;;5.80;99.90;;;;;;4993747;28;20046;-77
2024/01/25 03:07:22;;;;;;;904.30;822.47;;;5.80;99.90;;;;;;4992502;28;20129;-77
2024/01/25 03:09:48;;;;;;;895.33;816.10;;;5.70;99.90;;;;;;5002596;28;20378;-77
2024/01/25 03:12:14;;;;;;;850.95;781.72;;;5.70;99.90;;;;;;4998608;28;20058;-77
2024/01/25 03:14:39;;;;;;;800.78;736.60;;;5.60;99.90;;;;;;4992318;28;20049;-77
2024/01/25 03:17:05;;;;;;;816.15;749.83;;;5.60;99.90;;;;;;5003329;28;20062;-77
2024/01/25 03:19:31;;;;;;;895.15;814.42;;;5.60;99.90;;;;;;4992623;28;20555;-77
2024/01/25 03:21:57;;;;;;;859.20;786.75;;;5.50;99.90;;;;;;5003251;28;20447;-77
2024/01/25 03:24:23;;;;;;;825.92;757.88;;;5.50;99.90;;;;;;5002208;28;20082;-77
2024/01/25 03:26:49;;;;;;;880.53;804.78;;;5.50;99.90;;;;;;5003187;28;20054;-77
2024/01/25 03:29:15;;;;;;;888.20;809.45;;;5.50;99.90;;;;;;5003935;28;20057;-77
2024/01/25 03:31:41;;;;;;;927.65;845.05;;;5.40;99.90;;;;;;4972610;28;20061;-77
2024/01/25 03:34:06;;;;;;;881.70;804.10;;;5.70;99.90;;;;;;5017831;28;20448;-77
2024/01/25 03:36:32;;;;;;;859.33;788.15;;;5.40;99.90;;;;;;4985145;28;20137;-77
2024/01/25 03:38:58;;;;;;;891.08;811.80;;;5.40;99.90;;;;;;4983393;28;20166;-77
2024/01/25 03:41:24;;;;;;;853.67;780.85;;;5.60;99.90;;;;;;4971860;28;20133;-77
2024/01/25 03:43:50;;;;;;;823.42;753.65;;;5.40;99.90;;;;;;4983916;28;20061;-77
2024/01/25 03:46:16;;;;;;;832.38;764.17;;;5.30;99.90;;;;;;4984913;28;20119;-77
2024/01/25 03:48:42;;;;;;;874.00;801.78;;;5.30;99.90;;;;;;4984640;28;20046;-77
2024/01/25 03:51:08;;;;;;;884.83;809.47;;;5.30;99.90;;;;;;4984234;28;20042;-77
2024/01/25 03:53:34;;;;;;;925.13;843.47;;;5.20;99.90;;;;;;4987515;28;20066;-77
2024/01/25 03:55:59;;;;;;;963.17;875.03;;;5.20;99.90;;;;;;4984494;28;20537;-77
2024/01/25 03:58:25;;;;;;;867.15;793.00;;;5.20;99.90;;;;;;4985608;28;20117;-77
2024/01/25 04:00:51;;;;;;;937.20;847.53;;;5.30;99.90;;;;;;4997025;28;20524;-77
2024/01/25 04:03:16;;;;;;;844.13;774.95;;;5.20;99.90;;;;;;5002756;28;20073;-77
2024/01/25 04:05:42;;;;;;;875.13;798.50;;;5.20;99.90;;;;;;5004315;28;20166;-77
2024/01/25 04:08:08;;;;;;;942.92;856.38;;;5.20;99.90;;;;;;4997901;28;20034;-77
2024/01/25 04:10:34;;;;;;;879.33;804.95;;;5.20;99.90;;;;;;5013721;28;20780;-77
2024/01/25 04:13:01;;;;;;;847.58;776.42;;;5.20;99.90;;;;;;5011960;28;20818;-77
2024/01/25 04:15:27;;;;;;;908.78;824.67;;;5.20;99.90;;;;;;5002911;28;20567;-77
2024/01/25 04:17:53;;;;;;;910.22;830.03;;;5.20;99.90;;;;;;4999071;28;20058;-77
2024/01/25 04:20:19;;;;;;;905.10;821.38;;;5.10;99.90;;;;;;4982196;28;20091;-77
2024/01/25 04:22:45;;;;;;;883.17;807.92;;;5.10;99.90;;;;;;4984183;28;20077;-77
2024/01/25 04:25:11;;;;;;;847.22;774.83;;;5.10;99.90;;;;;;4983129;28;20061;-76
2024/01/25 04:27:38;;;;;;;956.78;860.67;;;5.10;99.90;;;;;;4982691;28;20050;-77
2024/01/25 04:30:05;;;;;;;864.75;791.72;;;5.10;99.90;;;;;;4984089;28;20563;-77
2024/01/25 04:32:31;;;;;;;911.58;830.63;;;5.10;99.90;;;;;;4987712;28;20050;-76
2024/01/25 04:34:57;;;;;;;910.42;829.85;;;5.10;99.90;;;;;;5004110;28;20335;-77
2024/01/25 04:37:22;;;;;;;904.38;825.83;;;5.10;99.90;;;;;;5002564;28;20102;-77
2024/01/25 04:39:48;;;;;;;918.03;836.10;;;5.10;99.90;;;;;;5002128;28;20053;-77
2024/01/25 04:42:14;;;;;;;883.72;807.47;;;5.00;99.90;;;;;;4998071;28;20050;-77
2024/01/25 04:44:39;;;;;;;898.67;819.47;;;5.30;99.90;;;;;;4995670;28;20505;-77
2024/01/25 04:47:05;;;;;;;928.13;844.85;;;5.00;99.90;;;;;;5003429;28;20480;-77
2024/01/25 04:49:31;;;;;;;853.65;783.40;;;5.00;99.90;;;;;;5002642;28;20818;-77
2024/01/25 04:51:57;;;;;;;935.13;851.05;;;5.10;99.90;;;;;;5003026;28;20056;-77
2024/01/25 04:54:23;;;;;;;887.75;811.03;;;5.00;99.90;;;;;;4990005;28;20492;-77
2024/01/25 04:56:48;;;;;;;864.28;792.25;;;4.90;99.90;;;;;;4993685;28;20123;-77
2024/01/25 04:59:14;;;;;;;868.72;794.42;;;4.90;99.90;;;;;;4983309;28;20053;-77
2024/01/25 05:01:40;;;;;;;834.47;765.80;;;4.90;99.90;;;;;;4997119;28;20047;-77
2024/01/25 05:04:05;;;;;;;833.40;764.33;;;4.90;99.90;;;;;;4995735;28;20058;-77
2024/01/25 05:06:31;;;;;;;815.08;748.03;;;5.10;99.90;;;;;;4996398;28;20054;-77
2024/01/25 05:08:57;;;;;;;877.42;801.97;;;4.80;99.90;;;;;;4983484;28;20043;-77
2024/01/25 05:11:22;;;;;;;857.50;784.72;;;4.80;99.90;;;;;;4984875;28;20042;-77
2024/01/25 05:13:48;;;;;;;893.85;815.35;;;4.80;99.90;;;;;;4985069;28;20072;-77
2024/01/25 05:16:14;;;;;;;867.17;793.17;;;4.70;99.90;;;;;;4982254;28;20413;-76
2024/01/25 05:18:39;;;;;;;852.60;781.92;;;4.70;99.90;;;;;;4984969;28;20137;-77
2024/01/25 05:21:06;;;;;;;878.25;799.17;;;4.70;99.90;;;;;;5016313;28;20506;-77
2024/01/25 05:23:32;;;;;;;829.17;761.60;;;4.70;99.90;;;;;;4982593;28;20156;-77
2024/01/25 05:25:57;;;;;;;879.28;803.60;;;4.70;99.90;;;;;;4982732;28;20050;-77
2024/01/25 05:28:24;;;;;;;874.53;800.92;;;4.80;99.90;;;;;;4983371;28;20046;-77
2024/01/25 05:30:50;;;;;;;892.80;810.85;;;4.70;99.90;;;;;;4982618;28;20080;-77
2024/01/25 05:33:16;;;;;;;872.15;799.90;;;4.70;99.90;;;;;;4987330;28;20050;-77
2024/01/25 05:35:42;;;;;;;823.35;754.70;;;4.70;99.90;;;;;;4986422;28;20046;-77
2024/01/25 05:38:07;;;;;;;849.72;778.50;;;4.70;99.90;;;;;;4973403;28;20057;-77
2024/01/25 05:40:33;;;;;;;886.22;810.50;;;4.80;99.90;;;;;;4998935;28;20144;-77
2024/01/25 05:42:59;;;;;;;919.03;837.97;;;4.70;99.90;;;;;;4982164;28;20402;-77
2024/01/25 05:45:26;;;;;;;873.78;800.67;;;4.70;99.90;;;;;;4982584;28;20045;-77
2024/01/25 05:47:52;;;;;;;799.88;735.08;;;4.70;99.90;;;;;;4979785;28;20061;-77
2024/01/25 05:50:18;;;;;;;822.30;755.60;;;4.60;99.90;;;;;;4987023;28;20034;-77
2024/01/25 05:52:43;;;;;;;826.17;758.13;;;4.60;99.90;;;;;;4986098;28;20378;-77
2024/01/25 05:55:09;;;;;;;900.15;821.40;;;4.60;99.90;;;;;;4986668;28;20047;-76
2024/01/25 05:57:36;;;;;;;819.90;752.25;;;4.60;99.90;;;;;;4987935;28;20039;-76
2024/01/25 06:00:03;;;;;;;938.88;852.35;;;4.50;99.90;;;;;;4986482;28;20546;-77
2024/01/25 06:02:29;;;;;;;986.78;892.05;;;4.50;99.90;;;;;;5001091;28;20075;-77
2024/01/25 06:04:58;;;;;;;898.08;818.15;;;4.50;99.90;;;;;;5004052;28;20046;-77
2024/01/25 06:07:23;;;;;;;928.15;843.10;;;4.50;99.90;;;;;;4998403;28;20060;-77
2024/01/25 06:09:49;;;;;;;893.65;814.58;;;4.50;99.90;;;;;;4985018;28;20042;-76
2024/01/25 06:12:15;;;;;;;872.05;796.78;;;4.50;99.90;;;;;;4985376;28;20054;-77
2024/01/25 06:14:40;;;;;;;983.33;890.50;;;4.50;99.90;;;;;;4986063;28;20062;-77
2024/01/25 06:17:06;;;;;;;909.63;829.78;;;4.50;99.90;;;;;;4986982;28;20085;-77
2024/01/25 06:19:33;;;;;;;958.50;864.65;;;4.80;99.90;;;;;;4986770;28;20077;-76
2024/01/25 06:21:59;;;;;;;883.60;806.67;;;4.40;99.90;;;;;;4986184;28;20058;-77
2024/01/25 06:24:24;;;;;;;909.70;827.33;;;4.40;99.90;;;;;;4986293;28;20047;-77
2024/01/25 06:26:50;;;;;;;906.72;824.58;;;4.90;99.90;;;;;;4987209;28;20893;-76
2024/01/25 06:29:16;;;;;;;854.60;783.97;;;4.30;99.90;;;;;;4987529;28;20462;-77
2024/01/25 06:31:43;;;;;;;937.22;849.63;;;4.30;99.90;;;;;;4986314;28;20493;-77
2024/01/25 06:34:09;;;;;;;973.63;878.30;;;4.50;99.90;;;;;;4987091;28;20082;-77
2024/01/25 06:36:35;;;;;;;1024.70;922.97;;;4.30;99.90;;;;;;4988063;28;20462;-77
2024/01/25 06:39:01;;;;;;;1045.63;940.67;;;4.20;99.90;;;;;;4986678;28;20090;-77
2024/01/25 06:41:26;;;;;;;1003.17;906.90;;;4.20;99.90;;;;;;4985886;28;20359;-77
2024/01/25 06:43:52;;;;;;;837.85;768.72;;;4.20;99.90;;;;;;4988055;28;20054;-77
2024/01/25 06:46:18;;;;;;;865.83;793.58;;;4.20;99.90;;;;;;4987843;28;20389;-77
2024/01/25 06:48:43;;;;;;;814.88;749.50;;;4.60;99.90;;;;;;4986890;28;20508;-76
2024/01/25 06:51:09;;;;;;;815.53;749.33;;;4.20;99.90;;;;;;4985923;28;20129;-77
2024/01/25 06:53:35;;;;;;;825.15;758.60;;;4.30;99.90;;;;;;4988663;28;20038;-77
2024/01/25 06:56:01;;;;;;;850.30;777.90;;;4.20;99.90;;;;;;4986517;28;20065;-77
2024/01/25 06:58:26;;;;;;;884.08;809.63;;;4.30;99.90;;;;;;5011617;28;20473;-77
2024/01/25 07:00:52;;;;;;;814.40;747.45;;;4.20;99.90;;;;;;4991966;28;20038;-76
2024/01/25 07:03:18;;;;;;;796.22;732.15;;;4.60;99.90;;;;;;4987382;28;20102;-77
2024/01/25 07:05:44;;;;;;;831.75;764.05;;;4.20;99.90;;;;;;5005197;28;20038;-76
2024/01/25 07:08:13;;;;;;;854.70;783.47;;;4.30;99.90;;;;;;5004565;28;20568;-77
2024/01/25 07:10:39;;;;;;;818.95;752.75;;;4.20;99.90;;;;;;5000049;28;20115;-76
2024/01/25 07:13:06;;;;;;;788.08;724.80;;;4.20;99.90;;;;;;5004353;28;20046;-77
2024/01/25 07:15:32;;;;;;;829.53;761.67;;;4.10;99.90;;;;;;5002165;28;20054;-77
2024/01/25 07:17:57;;;;;;;828.22;760.58;;;4.20;99.90;;;;;;5005995;28;20099;-77
2024/01/25 07:20:23;;;;;;;793.55;730.15;;;4.20;99.90;;;;;;5002260;28;20045;-77
2024/01/25 07:22:49;;;;;;;772.67;711.47;;;4.10;99.90;;;;;;4986611;28;20056;-77
2024/01/25 07:25:15;;;;;;;791.47;726.92;;;4.10;99.90;;;;;;5002041;28;20034;-76
2024/01/25 07:27:45;;;;;;;826.50;759.88;;;4.10;99.90;;;;;;5003167;28;20156;-76
2024/01/25 07:30:12;;;;;;;794.50;730.65;;;4.10;99.90;;;;;;5002178;28;20185;-77
2024/01/25 07:32:39;;;;;;;817.95;751.78;;;4.10;99.90;;;;;;4992999;28;20042;-77
2024/01/25 07:35:05;;;;;;;827.78;758.05;;;4.10;99.90;;;;;;5001383;28;20057;-80
2024/01/25 07:37:31;;;;;;;801.90;737.50;;;4.10;99.90;;;;;;4995532;28;20103;-77
2024/01/25 07:39:57;;;;;;;812.47;746.17;;;4.10;99.90;;;;;;4979868;28;20054;-77
2024/01/25 07:42:22;;;;;;;806.83;741.03;;;4.10;99.90;;;;;;4992082;28;20106;-76
2024/01/25 07:44:48;;;;;;;793.08;731.08;;;4.20;99.90;;;;;;4989302;28;20042;-77
2024/01/25 07:47:14;;;;;;;800.00;736.58;;;4.10;99.90;;;;;;4999012;28;20110;-77
2024/01/25 07:49:41;;;;;;;769.35;707.65;;;4.10;99.90;;;;;;4986816;28;20517;-76
2024/01/25 07:52:07;;;;;;;819.67;752.88;;;4.10;99.90;;;;;;4997439;28;20054;-76
2024/01/25 07:54:32;;;;;;;804.83;738.22;;;4.10;99.90;;;;;;5023776;28;20168;-77
2024/01/25 07:56:58;;;;;;;825.17;756.97;;;4.10;99.90;;;;;;4996026;28;20126;-76
2024/01/25 07:59:23;;;;;;;800.75;735.22;;;4.20;99.90;;;;;;4985217;28;20057;-76
2024/01/25 08:01:49;;;;;;;817.75;750.60;;;4.20;99.90;;;;;;5003406;28;20093;-77
2024/01/25 08:04:15;;;;;;;826.53;760.42;;;4.30;99.90;;;;;;5003342;28;20064;-76
2024/01/25 08:06:40;;;;;;;823.72;756.47;;;4.30;99.90;;;;;;4994461;28;20093;-77
2024/01/25 08:09:08;;;;;;;809.55;744.03;;;4.30;99.90;;;;;;4989567;28;20053;-76
2024/01/25 08:11:35;;;;;;;832.63;764.85;;;4.20;99.90;;;;;;4977915;28;20054;-76
2024/01/25 08:14:01;;;;;;;809.58;743.35;;;4.30;99.90;;;;;;4985149;28;20474;-76
2024/01/25 08:16:26;;;;;;;814.53;747.55;;;4.30;99.90;;;;;;4993498;28;20038;-76
2024/01/25 08:18:52;;;;;;;778.15;716.03;;;4.40;99.90;;;;;;4995007;28;20502;-76
2024/01/25 08:21:18;;;;;;;775.97;712.83;;;4.30;99.90;;;;;;4998272;28;20050;-76
2024/01/25 08:23:43;;;;;;;788.40;724.97;;;4.30;99.90;;;;;;4993662;28;20083;-76
2024/01/25 08:26:09;;;;;;;767.30;705.10;;;4.30;99.90;;;;;;4994661;28;20434;-77
2024/01/25 08:28:36;;;;;;;775.75;713.20;;;4.30;99.90;;;;;;4992545;28;20158;-76
2024/01/25 08:31:02;;;;;;;790.70;726.80;;;4.40;99.90;;;;;;4990162;28;20045;-77
2024/01/25 08:33:28;;;;;;;802.30;736.85;;;4.40;99.90;;;;;;4968987;28;20505;-76
2024/01/25 08:35:53;;;;;;;830.15;762.25;;;4.40;99.90;;;;;;4985246;28;20046;-77
2024/01/25 08:38:19;;;;;;;821.40;754.65;;;4.50;99.90;;;;;;4981953;28;20137;-76
2024/01/25 08:40:45;;;;;;;816.90;750.60;;;4.50;99.90;;;;;;4992979;28;20038;-76
2024/01/25 08:43:10;;;;;;;790.40;726.15;;;4.50;99.90;;;;;;4991914;28;20051;-77
2024/01/25 08:45:38;;;;;;;817.25;751.50;;;4.60;99.90;;;;;;4996070;28;20046;-76
2024/01/25 08:48:04;;;;;;;801.35;737.42;;;4.60;99.90;;;;;;4990924;28;20065;-77
2024/01/25 08:50:30;;;;;;;810.03;743.85;;;4.50;99.90;;;;;;4996700;28;20113;-77
2024/01/25 08:52:55;;;;;;;786.25;723.78;;;4.60;99.90;;;;;;4993608;28;20535;-77
2024/01/25 08:55:21;;;;;;;789.80;725.38;;;4.70;99.90;;;;;;5002148;28;20827;-76
2024/01/25 08:57:48;;;;;;;804.58;738.92;;;4.70;99.90;;;;;;4997718;28;20057;-77
2024/01/25 09:00:15;;;;;;;795.88;733.22;;;4.70;99.90;;;;;;4997248;28;20091;-76
2024/01/25 09:02:42;;;;;;;822.40;755.28;;;4.80;99.90;;;;;;5034911;28;20054;-77
2024/01/25 09:05:08;;;;;;;799.70;734.53;;;4.80;99.90;;;;;;5003557;28;20127;-76
2024/01/25 09:07:34;;;;;;;832.10;763.50;;;4.80;99.90;;;;;;4997561;28;20055;-77
2024/01/25 09:10:00;;;;;;;833.65;765.42;;;4.90;99.90;;;;;;4999190;28;20044;-77
2024/01/25 09:12:26;;;;;;;804.05;738.53;;;4.90;99.90;;;;;;4984573;28;20041;-77
2024/01/25 09:14:52;;;;;;;824.55;758.03;;;4.90;99.90;;;;;;4994458;28;20084;-77
2024/01/25 09:17:21;;;;;;;796.78;732.58;;;5.00;99.90;;;;;;5000364;28;20125;-77
2024/01/25 09:19:50;;;;;;;822.45;754.78;;;5.00;99.90;;;;;;4996556;28;20073;-77
2024/01/25 09:22:19;;;;;;;807.20;741.38;;;5.00;99.90;;;;;;5000093;28;20045;-77
2024/01/25 09:24:46;;;;;;;792.40;727.90;;;5.00;99.90;;;;;;4995773;28;20057;-77
2024/01/25 09:27:12;;;;;;;816.83;748.45;;;5.10;99.90;;;;;;5002531;28;20521;-77
2024/01/25 09:29:39;;;;;;;810.60;745.42;;;5.10;99.90;;;;;;4993443;28;20137;-77
2024/01/25 09:32:06;;;;;;;768.60;706.05;;;5.20;99.90;;;;;;5002951;28;20413;-77
2024/01/25 09:34:32;;;;;;;796.85;731.78;;;5.20;99.90;;;;;;5027473;28;20047;-76
2024/01/25 09:36:58;;;;;;;814.70;747.78;;;5.30;99.90;;;;;;5000359;28;20061;-77
2024/01/25 09:39:23;;;;;;;796.28;731.60;;;5.30;99.90;;;;;;4996291;28;20113;-76
2024/01/25 09:41:49;;;;;;;802.58;737.17;;;5.30;99.90;;;;;;5001324;28;20464;-76
2024/01/25 09:44:17;;;;;;;816.08;749.85;;;5.40;99.90;;;;;;4988826;28;20157;-76
2024/01/25 09:46:45;;;;;;;800.50;736.47;;;5.50;99.90;;;;;;5001500;28;20126;-76
2024/01/25 09:49:11;;;;;;;784.70;721.75;;;5.50;99.90;;;;;;4994984;28;20042;-76
2024/01/25 09:51:39;;;;;;;781.97;717.55;;;5.50;99.90;;;;;;4999807;28;20160;-76
2024/01/25 09:54:06;;;;;;;793.22;730.22;;;5.60;99.90;;;;;;4995129;28;20057;-76
2024/01/25 09:56:33;;;;;;;785.78;722.70;;;5.60;99.90;;;;;;4998830;28;20509;-76
2024/01/25 09:59:00;;;;;;;836.03;766.47;;;5.70;99.90;;;;;;4990652;28;20046;-76
2024/01/25 10:01:27;;;;;;;804.45;739.05;;;5.70;99.90;;;;;;4991900;28;20986;-77
2024/01/25 10:03:56;;;;;;;764.17;702.00;;;5.70;99.90;;;;;;5003839;28;20537;-76
2024/01/25 10:06:22;;;;;;;788.30;725.50;;;5.70;99.90;;;;;;5004535;28;20085;-76
2024/01/25 10:08:48;;;;;;;801.92;737.72;;;5.70;99.90;;;;;;5005573;28;20056;-76
2024/01/25 10:11:15;;;;;;;771.63;710.83;;;5.70;99.90;;;;;;4998290;28;20408;-77
2024/01/25 10:13:42;;;;;;;821.28;753.90;;;5.70;99.90;;;;;;5005208;28;20053;-76
2024/01/25 10:16:16;;;;;;;786.65;722.45;;;5.90;99.90;;;;;;5004550;28;20046;-76
2024/01/25 10:18:43;;;;;;;827.45;758.55;;;5.90;99.90;;;;;;5004053;28;20042;-76
2024/01/25 10:21:13;;;;;;;792.03;728.58;;;6.00;99.90;;;;;;4979733;28;20044;-76
2024/01/25 10:23:40;;;;;;;788.33;725.00;;;6.10;99.90;;;;;;5004737;28;20045;-77
2024/01/25 10:26:08;;;;;;;794.60;731.65;;;6.10;99.90;;;;;;5004862;28;20037;-76
2024/01/25 10:28:34;;;;;;;830.58;763.05;;;6.20;99.90;;;;;;5003596;28;20079;-76
2024/01/25 10:31:01;;;;;;;773.45;711.42;;;6.20;99.90;;;;;;5005373;28;20054;-76
2024/01/25 10:33:27;;;;;;;824.92;757.97;;;6.30;99.90;;;;;;5002931;28;20443;-76
2024/01/25 10:35:59;;;;;;;733.67;675.60;;;6.30;99.90;;;;;;5004219;28;20046;-76
2024/01/25 10:38:26;;;;;;;763.03;701.85;;;6.30;99.90;;;;;;4986983;28;20115;-76
2024/01/25 10:40:53;;;;;;;715.90;660.55;;;6.30;99.90;;;;;;4986166;28;20054;-77
2024/01/25 10:43:19;;;;;;;760.75;700.33;;;6.10;99.90;;;;;;5003084;28;20050;-76
2024/01/25 10:45:46;;;;;;;716.50;660.92;;;6.10;99.90;;;;;;5004637;28;20053;-76
2024/01/25 10:48:12;;;;;;;753.78;693.55;;;6.10;99.90;;;;;;5004299;28;20081;-76
2024/01/25 10:50:39;;;;;;;753.92;694.85;;;6.10;99.90;;;;;;5003198;28;20046;-76
2024/01/25 10:53:07;;;;;;;765.83;705.40;;;6.20;99.90;;;;;;5003174;28;20051;-76
2024/01/25 10:55:33;;;;;;;742.72;684.60;;;6.20;99.90;;;;;;5002888;28;20103;-77
2024/01/25 10:57:58;;;;;;;740.55;682.20;;;6.20;99.90;;;;;;5001076;28;20046;-76
2024/01/25 11:00:24;;;;;;;758.17;698.20;;;6.20;99.90;;;;;;4993042;28;20547;-77
2024/01/25 11:02:51;;;;;;;774.83;713.28;;;6.30;99.90;;;;;;4988428;28;20102;-76
2024/01/25 11:05:19;;;;;;;795.70;731.33;;;6.40;99.90;;;;;;4984877;28;20099;-77
2024/01/25 11:07:48;;;;;;;821.55;753.80;;;6.50;99.90;;;;;;4984300;28;20057;-77
2024/01/25 11:10:17;;;;;;;806.28;741.05;;;6.60;99.90;;;;;;4986042;28;20124;-76
2024/01/25 11:12:57;;;;;;;769.22;707.40;;;6.80;99.90;;;;;;4983749;28;20058;-76
2024/01/25 11:15:30;;;;;;;795.03;731.30;;;6.90;99.90;;;;;;4984379;28;20054;-77
2024/01/25 11:17:56;;;;;;;;;;;7.00;99.90;;;;;;4986010;28;20054;-76
2024/01/25 11:20:24;;;;;;;809.83;744.25;;;7.00;99.90;;;;;;4985463;28;19986;-77
2024/01/25 11:22:56;;;;;;;697.38;642.80;;;7.00;99.90;;;;;;4987445;28;20118;-76
2024/01/25 11:25:22;;;;;;;771.57;710.33;;;7.00;99.90;;;;;;4973904;28;20492;-76
2024/01/25 11:27:50;;;;;;;751.15;690.00;;;7.10;99.90;;;;;;5001107;28;20054;-76
2024/01/25 11:30:19;;;;;;;740.92;683.70;;;7.10;99.90;;;;;;4990057;28;20055;-76
2024/01/25 11:32:47;;;;;;;728.35;670.65;;;7.10;99.90;;;;;;4997058;28;20477;-76
2024/01/25 11:35:16;;;;;;;688.22;634.85;;;7.10;99.90;;;;;;4990515;28;20119;-77
2024/01/25 11:37:45;;;;;;;707.63;653.13;;;7.10;99.90;;;;;;4999958;28;20125;-77
2024/01/25 11:40:12;;;;;;;724.05;667.42;;;7.10;99.90;;;;;;4995448;28;20053;-77
2024/01/25 11:42:39;;;;;;;781.20;718.10;;;7.20;99.90;;;;;;4999315;28;20114;-77
2024/01/25 11:45:08;;;;;;;738.13;679.88;;;7.20;99.90;;;;;;4978970;28;20038;-77
2024/01/25 11:47:34;;;;;;;692.88;639.55;;;7.20;99.90;;;;;;4999144;28;20081;-76
2024/01/25 11:50:00;;;;;;;708.15;653.22;;;7.20;99.90;;;;;;4992712;28;20085;-77
2024/01/25 11:52:26;;;;;;;679.25;627.33;;;7.20;99.90;;;;;;4995157;28;20065;-76
2024/01/25 11:54:51;;;;;;;681.95;629.17;;;7.10;99.90;;;;;;4997356;28;20602;-76
2024/01/25 11:57:18;;;;;;;692.40;638.28;;;7.20;99.90;;;;;;5032443;28;20132;-76
2024/01/25 11:59:45;;;;;;;666.78;615.63;;;7.20;99.90;;;;;;4996393;28;20045;-77
2024/01/25 12:02:13;;;;;;;650.63;601.13;;;7.20;99.90;;;;;;4999330;28;20553;-77
2024/01/25 12:04:39;;;;;;;669.80;618.25;;;7.20;99.90;;;;;;5026849;28;20588;-77
2024/01/25 12:07:06;;;;;;;696.88;643.15;;;7.20;99.90;;;;;;4997886;28;20046;-77
2024/01/25 12:09:32;;;;;;;694.40;640.35;;;7.20;99.90;;;;;;4994793;28;20398;-76
2024/01/25 12:12:00;;;;;;;669.10;617.13;;;7.30;99.90;;;;;;4994793;28;20050;-76
2024/01/25 12:14:28;;;;;;;671.75;619.72;;;7.30;99.90;;;;;;4994367;28;20108;-76